Time;durP1;ratioP1;P1;durP2;ratioP2;P2;SDS_P1;SDS_P2;PMS_P1;PMS_P2;Temp;Humidity;BMP_temperature;BMP_pressure;BME280_temperature;BME280_humidity;BME280_pressure;Samples;Min_cycle;Max_cycle;Signal;HPM_P1;HPM_P2
2022/09/08 00:01:59;;;;;;;11.27;4.30;;;;;;;15.56;65.39;100745.09;125672;1099;104229;-77
2022/09/08 00:04:31;;;;;;;8.87;4.63;;;;;;;15.55;65.46;100743.34;124913;1099;102842;-77
2022/09/08 00:07:03;;;;;;;10.30;4.30;;;;;;;15.55;65.59;100742.42;124946;1099;104248;-77
2022/09/08 00:09:34;;;;;;;13.27;4.73;;;;;;;15.52;65.01;100737.07;124943;1099;104261;-78
2022/09/08 00:12:06;;;;;;;11.30;4.93;;;;;;;15.50;65.37;100739.69;124936;1099;102275;-78
2022/09/08 00:14:37;;;;;;;10.30;4.67;;;;;;;15.47;65.19;100731.69;125180;1099;104297;-76
2022/09/08 00:17:09;;;;;;;15.80;4.83;;;;;;;15.47;65.79;100736.98;124845;1099;104181;-77
2022/09/08 00:19:40;;;;;;;12.87;4.80;;;;;;;15.41;65.46;100729.84;125000;1099;104258;-77
2022/09/08 00:22:11;;;;;;;11.83;4.70;;;;;;;15.40;65.34;100729.81;124904;1099;104157;-77
2022/09/08 00:24:42;;;;;;;8.40;4.67;;;;;;;15.35;65.38;100732.36;125098;1098;104235;-78
2022/09/08 00:27:13;;;;;;;11.47;5.30;;;;;;;15.34;65.27;100729.69;124841;1099;104230;-78
2022/09/08 00:29:45;;;;;;;11.20;5.40;;;;;;;15.30;65.58;100723.42;124915;1097;102249;-78
2022/09/08 00:32:20;;;;;;;8.93;4.70;;;;;;;15.29;66.44;100726.95;125000;1099;102359;-78
2022/09/08 00:34:51;;;;;;;9.85;4.60;;;;;;;15.25;66.39;100720.72;124940;1099;102780;-78
2022/09/08 00:37:22;;;;;;;12.20;4.67;;;;;;;15.24;65.59;100720.70;124908;1098;104580;-77
2022/09/08 00:39:56;;;;;;;12.67;4.90;;;;;;;15.24;66.59;100715.41;124943;1099;104341;-77
2022/09/08 00:42:27;;;;;;;13.13;4.67;;;;;;;15.26;65.71;100718.96;124800;1099;102003;-78
2022/09/08 00:44:58;;;;;;;12.93;5.13;;;;;;;15.26;66.13;100711.91;124900;1099;104214;-78
2022/09/08 00:47:34;;;;;;;9.23;5.00;;;;;;;15.27;66.09;100712.83;124888;1099;102804;-77
2022/09/08 00:50:08;;;;;;;9.63;4.80;;;;;;;15.28;66.57;100720.75;124832;1099;104233;-78
2022/09/08 00:52:46;;;;;;;12.33;5.13;;;;;;;15.28;66.64;100710.17;124871;1099;104044;-77
2022/09/08 00:55:18;;;;;;;13.30;5.50;;;;;;;15.28;66.68;100711.94;124900;1098;103370;-77
2022/09/08 00:57:49;;;;;;;9.27;4.90;;;;;;;15.29;66.10;100711.09;124886;1099;104239;-77
2022/09/08 01:00:21;;;;;;;10.50;5.30;;;;;;;15.26;66.66;100705.74;124954;1099;102432;-77
2022/09/08 01:02:52;;;;;;;13.00;5.30;;;;;;;15.25;67.24;100715.44;124844;1099;102302;-77
2022/09/08 01:05:27;;;;;;;11.17;5.00;;;;;;;15.24;67.01;100720.70;124915;1099;104262;-77
2022/09/08 01:14:00;;;;;;;12.97;5.03;;;;;;;15.20;66.62;100732.94;124842;1099;104309;-77
2022/09/08 01:16:42;;;;;;;11.23;5.03;;;;;;;15.18;67.64;100718.80;124893;1099;104242;-77
2022/09/08 01:19:19;;;;;;;16.90;5.30;;;;;;;15.18;66.91;100712.64;124874;1099;104185;-77
2022/09/08 01:22:05;;;;;;;10.50;5.07;;;;;;;15.17;67.02;100705.55;124864;1099;104166;-77
2022/09/08 01:24:46;;;;;;;12.27;4.80;;;;;;;15.16;67.24;100704.67;124964;1099;102862;-78
2022/09/08 01:27:23;;;;;;;13.33;5.40;;;;;;;15.16;66.94;100707.32;125025;1099;104249;-78
2022/09/08 01:30:00;;;;;;;11.03;5.53;;;;;;;15.15;67.71;100700.23;124954;1098;107022;-77
2022/09/08 01:32:33;;;;;;;12.20;5.45;;;;;;;15.15;67.18;100702.88;124944;1099;103190;-77
2022/09/08 01:35:05;;;;;;;14.13;5.35;;;;;;;15.14;67.83;100694.92;125036;1099;104252;-77
2022/09/08 01:37:37;;;;;;;14.03;5.23;;;;;;;15.14;68.18;100692.28;125050;1099;102181;-78
2022/09/08 01:40:09;;;;;;;11.90;5.63;;;;;;;15.12;67.37;100694.01;124923;1098;120022;-78
2022/09/08 01:42:41;;;;;;;13.27;5.57;;;;;;;15.09;68.37;100693.06;125328;1099;104283;-77
2022/09/08 01:45:12;;;;;;;12.47;5.73;;;;;;;15.07;68.40;100694.80;124902;1099;103294;-78
2022/09/08 01:47:43;;;;;;;10.77;5.50;;;;;;;15.06;67.88;100686.84;124880;1099;104229;-78
2022/09/08 01:50:15;;;;;;;11.83;5.50;;;;;;;15.03;68.20;100692.06;124974;1099;103384;-78
2022/09/08 01:52:46;;;;;;;10.77;5.47;;;;;;;15.02;67.76;100701.75;124950;1099;104229;-78
2022/09/08 01:55:17;;;;;;;12.67;5.23;;;;;;;15.03;67.94;100702.63;124972;1099;104345;-78
2022/09/08 01:57:48;;;;;;;10.97;5.57;;;;;;;15.03;68.28;100695.58;125006;1099;102769;-78
2022/09/08 02:00:20;;;;;;;15.37;5.63;;;;;;;15.02;68.24;100699.11;125017;1099;102775;-77
2022/09/08 02:02:51;;;;;;;14.43;6.40;;;;;;;15.02;68.78;100699.11;124989;1098;102775;-78
2022/09/08 02:05:23;;;;;;;11.40;5.50;;;;;;;15.01;68.89;100697.31;124961;1099;103001;-78
2022/09/08 02:07:55;;;;;;;14.87;5.77;;;;;;;14.99;68.54;100695.48;124882;1098;104501;-77
2022/09/08 02:10:26;;;;;;;12.00;5.43;;;;;;;14.94;68.50;100698.03;124979;1099;104693;-80
2022/09/08 02:12:57;;;;;;;12.27;5.70;;;;;;;14.92;68.85;100699.77;124875;1099;104187;-77
2022/09/08 02:15:29;;;;;;;11.93;5.17;;;;;;;14.90;69.32;100690.92;124911;1099;102290;-77
2022/09/08 02:18:03;;;;;;;16.07;7.10;;;;;;;14.84;68.48;100696.08;124905;1099;104260;-77
2022/09/08 02:20:37;;;;;;;18.70;8.27;;;;;;;14.83;69.58;100695.16;124864;1099;104318;-78
2022/09/08 02:23:08;;;;;;;13.60;7.00;;;;;;;14.80;68.62;100699.50;124858;1099;104061;-78
2022/09/08 02:25:40;;;;;;;16.47;7.43;;;;;;;14.80;69.51;100699.50;124956;1099;103225;-78
2022/09/08 02:28:11;;;;;;;14.30;7.07;;;;;;;14.81;69.40;100696.01;124913;1099;104236;-78
2022/09/08 02:30:42;;;;;;;14.07;6.93;;;;;;;14.83;69.77;100689.88;124904;1099;104192;-78
2022/09/08 02:33:15;;;;;;;15.17;6.70;;;;;;;14.85;69.03;100682.90;124887;1099;102840;-78
2022/09/08 02:35:46;;;;;;;12.10;6.40;;;;;;;14.86;69.60;100678.49;124916;1099;104222;-78
2022/09/08 02:38:17;;;;;;;15.90;7.13;;;;;;;14.85;68.95;100680.25;124928;1099;102906;-77
2022/09/08 02:40:48;;;;;;;17.67;7.97;;;;;;;14.82;68.98;100684.56;124941;1098;103047;-78
2022/09/08 02:43:20;;;;;;;18.40;8.37;;;;;;;14.77;69.41;100683.58;124822;1099;104254;-78
2022/09/08 02:45:51;;;;;;;19.93;8.73;;;;;;;14.76;69.01;100682.70;124798;1099;104143;-77
2022/09/08 02:48:23;;;;;;;22.57;9.07;;;;;;;14.73;69.84;100682.63;124905;1099;104160;-78
2022/09/08 02:50:55;;;;;;;22.30;10.00;;;;;;;14.73;70.13;100688.80;124888;1099;104181;-78
2022/09/08 02:53:26;;;;;;;19.67;8.73;;;;;;;14.77;69.27;100680.94;124932;1099;101770;-78
2022/09/08 02:55:57;;;;;;;21.80;8.30;;;;;;;14.81;69.34;100688.08;124896;1099;104189;-77
2022/09/08 02:58:29;;;;;;;20.33;8.20;;;;;;;14.84;69.32;100689.03;124852;1099;104175;-78
2022/09/08 03:01:00;;;;;;;19.50;7.93;;;;;;;14.84;69.63;100685.51;124902;1099;104239;-78
2022/09/08 03:03:32;;;;;;;20.20;8.93;;;;;;;14.83;69.42;100679.31;124915;1099;104235;-78
2022/09/08 03:06:04;;;;;;;20.87;7.97;;;;;;;14.84;70.02;100674.94;124959;1099;104162;-77
2022/09/08 03:08:35;;;;;;;20.87;8.70;;;;;;;14.80;69.72;100675.72;124991;1098;104243;-78
2022/09/08 03:11:08;;;;;;;22.70;8.40;;;;;;;14.77;70.22;100675.66;124969;1099;102762;-78
2022/09/08 03:13:39;;;;;;;18.13;7.63;;;;;;;14.71;70.36;100673.80;124910;1099;104187;-78
2022/09/08 03:16:10;;;;;;;20.20;8.73;;;;;;;14.67;70.32;100683.38;124892;1098;104163;-78
2022/09/08 03:18:41;;;;;;;17.23;7.00;;;;;;;14.60;69.79;100676.20;124921;1099;102880;-78
2022/09/08 03:21:15;;;;;;;17.40;7.87;;;;;;;14.55;70.44;100676.06;124813;1099;104239;-78
2022/09/08 03:23:46;;;;;;;18.48;8.30;;;;;;;14.53;70.47;100679.52;124871;1099;101863;-78
2022/09/08 03:26:19;;;;;;;16.33;7.13;;;;;;;14.50;70.85;100668.88;124835;1099;104217;-78
2022/09/08 03:28:51;;;;;;;22.55;8.10;;;;;;;14.46;70.44;100672.30;124848;1099;104153;-79
2022/09/08 03:31:23;;;;;;;19.70;7.80;;;;;;;14.45;70.58;100681.98;124911;1099;104157;-78
2022/09/08 03:33:57;;;;;;;18.17;7.87;;;;;;;14.46;70.95;100677.58;124916;1099;104169;-79
2022/09/08 03:36:28;;;;;;;17.10;8.27;;;;;;;14.47;70.79;100687.30;124967;1099;101915;-78
2022/09/08 03:38:59;;;;;;;21.03;8.27;;;;;;;14.48;71.06;100687.33;124950;1099;104156;-78
2022/09/08 03:41:30;;;;;;;21.75;8.10;;;;;;;14.50;70.48;100690.89;124873;1099;101877;-78
2022/09/08 03:44:02;;;;;;;19.43;8.03;;;;;;;14.51;70.64;100691.80;124916;1099;102800;-78
2022/09/08 03:46:33;;;;;;;16.20;7.40;;;;;;;14.50;71.14;100693.53;124878;1099;105322;-78
2022/09/08 03:49:04;;;;;;;24.70;8.73;;;;;;;14.51;71.05;100691.80;124900;1099;103212;-78
2022/09/08 03:51:35;;;;;;;23.43;8.73;;;;;;;14.53;70.86;100682.16;124898;1099;104111;-78
2022/09/08 03:56:58;;;;;;;19.10;8.27;;;;;;;14.56;70.67;100680.47;125025;1099;102243;-78
2022/09/08 03:59:29;;;;;;;21.40;8.30;;;;;;;14.56;71.23;100671.66;124916;1099;102241;-78
2022/09/08 04:02:01;;;;;;;20.67;8.07;;;;;;;14.57;71.29;100670.81;124810;1099;102819;-77
2022/09/08 04:04:32;;;;;;;20.87;8.67;;;;;;;14.56;71.36;100672.55;124938;1099;101937;-77
2022/09/08 04:07:04;;;;;;;21.37;9.40;;;;;;;14.56;71.52;100675.19;124854;1099;103369;-77
2022/09/08 04:09:34;;;;;;;21.50;9.07;;;;;;;14.58;71.12;100677.86;125129;1099;104262;-77
2022/09/08 04:12:06;;;;;;;23.87;9.30;;;;;;;14.60;71.23;100673.56;124972;1099;104256;-77
2022/09/08 04:14:38;;;;;;;22.87;9.23;;;;;;;14.64;70.73;100675.39;124814;1099;104501;-76
2022/09/08 04:17:09;;;;;;;24.03;9.93;;;;;;;14.66;71.68;100676.34;124891;1099;104249;-76
2022/09/08 04:19:41;;;;;;;24.93;9.73;;;;;;;14.69;71.67;100676.41;125265;1099;102784;-76
2022/09/08 04:22:22;;;;;;;27.43;10.40;;;;;;;14.69;71.63;100673.77;124969;1099;104215;-76
2022/09/08 04:24:53;;;;;;;31.63;10.80;;;;;;;14.76;71.47;100676.50;124883;1099;104172;-77
2022/09/08 04:27:25;;;;;;;21.93;10.03;;;;;;;14.78;72.05;100678.33;124944;1099;104156;-77
2022/09/08 04:29:58;;;;;;;26.73;10.30;;;;;;;14.82;72.05;100680.19;124932;1099;101786;-78
2022/09/08 04:32:29;;;;;;;21.60;9.30;;;;;;;14.87;71.16;100686.45;124818;1099;102780;-77
2022/09/08 04:35:01;;;;;;;23.85;10.15;;;;;;;14.89;71.17;100683.84;124931;1099;104178;-78
2022/09/08 04:37:32;;;;;;;27.43;10.63;;;;;;;14.91;71.83;100680.39;124845;1099;102884;-77
2022/09/08 04:40:07;;;;;;;28.57;10.43;;;;;;;14.94;71.74;100679.53;124905;1099;104184;-77
2022/09/08 04:42:42;;;;;;;29.20;10.15;;;;;;;15.00;71.85;100682.30;124904;1099;104198;-77
2022/09/08 04:45:19;;;;;;;32.80;10.47;;;;;;;15.03;71.93;100681.48;124892;1099;104201;-78
2022/09/08 04:47:53;;;;;;;27.67;10.13;;;;;;;15.07;71.43;100678.94;124850;1099;103062;-78
2022/09/08 04:50:26;;;;;;;33.23;10.90;;;;;;;15.11;71.75;100687.81;124871;1099;102820;-77
2022/09/08 04:52:59;;;;;;;27.00;9.67;;;;;;;15.14;72.35;100689.63;124799;1099;102778;-77
2022/09/08 04:55:30;;;;;;;29.90;10.70;;;;;;;15.17;72.17;100698.51;124913;1099;104261;-77
2022/09/08 04:58:03;;;;;;;25.90;10.53;;;;;;;15.22;71.74;100694.23;124814;1099;104771;-77
2022/09/08 05:00:36;;;;;;;31.43;11.57;;;;;;;15.27;71.91;100691.67;124880;1098;104233;-77
2022/09/08 05:03:09;;;;;;;24.17;9.63;;;;;;;15.30;71.83;100696.11;124837;1099;104235;-76
2022/09/08 05:05:42;;;;;;;24.83;10.07;;;;;;;15.32;72.19;100695.29;124773;1099;104143;-77
2022/09/08 05:08:14;;;;;;;25.33;10.40;;;;;;;15.38;71.90;100702.42;124815;1098;104066;-77
2022/09/08 05:10:48;;;;;;;23.50;9.47;;;;;;;15.37;72.02;100693.61;124374;1099;102864;-77
2022/09/08 05:13:26;;;;;;;27.53;10.03;;;;;;;15.47;72.49;100702.61;124958;1099;104163;-77
2022/09/08 05:16:07;;;;;;;25.47;11.00;;;;;;;15.51;72.32;100698.28;124842;1097;102785;-77
2022/09/08 05:18:41;;;;;;;28.40;10.17;;;;;;;15.59;72.39;100709.89;124933;1099;104197;-77
2022/09/08 05:21:14;;;;;;;27.60;10.23;;;;;;;15.66;71.63;100717.09;124864;1099;104214;-77
2022/09/08 05:23:53;;;;;;;25.43;10.23;;;;;;;15.68;71.73;100714.47;124812;1099;102216;-77
2022/09/08 05:26:28;;;;;;;23.30;10.20;;;;;;;15.73;72.85;100708.37;124909;1099;104156;-77
2022/09/08 05:29:04;;;;;;;29.85;10.30;;;;;;;15.80;71.99;100714.73;124417;1099;104341;-77
2022/09/08 05:31:38;;;;;;;20.43;9.73;;;;;;;15.84;72.61;100710.38;125953;1098;104051;-76
2022/09/08 05:34:12;;;;;;;30.80;10.73;;;;;;;15.87;72.86;100705.13;124805;1098;104169;-77
2022/09/08 05:36:46;;;;;;;29.47;10.47;;;;;;;15.93;73.06;100706.12;124859;1099;104235;-78
2022/09/08 05:39:20;;;;;;;28.23;11.60;;;;;;;16.02;72.54;100707.13;124841;1099;102778;-78
2022/09/08 05:41:53;;;;;;;26.63;11.03;;;;;;;16.06;72.93;100701.91;125358;1099;104602;-78
2022/09/08 05:44:27;;;;;;;33.40;11.23;;;;;;;16.09;72.62;100701.97;125531;1099;102882;-78
2022/09/08 05:47:07;;;;;;;28.50;12.20;;;;;;;16.14;72.31;100700.30;124898;1099;104198;-78
2022/09/08 05:49:56;;;;;;;31.77;11.65;;;;;;;16.18;72.25;100691.53;124853;1099;102002;-79
2022/09/08 05:52:34;;;;;;;27.03;11.63;;;;;;;16.23;72.28;100694.25;125773;1098;102222;-78
2022/09/08 05:55:15;;;;;;;25.53;11.90;;;;;;;16.30;72.92;100700.55;125642;1098;118867;-76
2022/09/08 05:57:51;;;;;;;27.30;11.83;;;;;;;16.35;72.40;100690.91;125695;1098;104156;-77
2022/09/08 06:00:40;;;;;;;29.03;11.63;;;;;;;16.41;73.06;100698.95;125703;1099;104765;-78
2022/09/08 06:03:16;;;;;;;28.10;12.80;;;;;;;16.47;72.25;100699.04;125763;1099;104217;-78
2022/09/08 06:05:51;;;;;;;28.77;13.37;;;;;;;16.53;72.76;100691.19;126655;1098;102111;-79
2022/09/08 06:08:30;;;;;;;24.80;11.20;;;;;;;16.61;72.54;100690.38;125676;1099;102379;-78
2022/09/08 06:11:06;;;;;;;19.87;10.37;;;;;;;16.67;72.74;100680.78;125715;1099;104654;-77
2022/09/08 06:13:39;;;;;;;26.37;11.00;;;;;;;16.74;72.84;100683.52;125667;1098;104223;-78
2022/09/08 06:16:17;;;;;;;19.70;9.55;;;;;;;16.81;72.82;100680.97;125641;1099;102640;-78
2022/09/08 06:19:04;;;;;;;19.57;9.87;;;;;;;16.89;72.95;100687.28;125672;1099;104344;-78
2022/09/08 06:21:42;;;;;;;20.73;9.37;;;;;;;16.98;72.91;100683.84;125902;1098;104153;-79
2022/09/08 06:27:45;;;;;;;19.33;9.27;;;;;;;17.14;72.71;100681.37;125753;1099;104172;-78
2022/09/08 06:30:28;;;;;;;18.60;9.40;;;;;;;17.23;72.94;100690.34;125619;1099;104168;-77
2022/09/08 06:33:17;;;;;;;19.40;9.27;;;;;;;17.31;72.80;100690.44;125656;1099;104198;-78
2022/09/08 06:36:11;;;;;;;20.17;9.27;;;;;;;17.40;72.63;100694.94;125651;1099;118431;-80
2022/09/08 06:38:48;;;;;;;19.40;9.20;;;;;;;17.50;72.75;100693.26;125683;1099;104664;-79
2022/09/08 06:41:41;;;;;;;18.40;8.83;;;;;;;17.58;72.67;100695.13;125651;1099;104159;-79
2022/09/08 06:44:22;;;;;;;18.83;9.37;;;;;;;17.71;72.43;100695.25;125711;1099;104092;-78
2022/09/08 06:47:07;;;;;;;17.23;8.87;;;;;;;17.82;72.50;100698.01;125820;1099;101947;-79
2022/09/08 06:49:45;;;;;;;19.63;8.93;;;;;;;17.93;72.62;100702.55;126695;1098;101967;-79
2022/09/08 06:52:32;;;;;;;18.20;8.80;;;;;;;18.03;72.43;100710.59;125912;1099;104166;-79
2022/09/08 06:55:16;;;;;;;18.40;8.20;;;;;;;18.12;72.39;100714.23;125870;1099;102781;-79
2022/09/08 06:58:13;;;;;;;16.70;8.67;;;;;;;18.23;72.63;100711.67;125665;1099;104243;-78
2022/09/08 07:01:18;;;;;;;;;;;;;;;;;;;;;
2022/09/08 07:04:44;;;;;;;22.10;9.47;;;;;;;18.54;72.24;100706.55;127613;1097;102231;-79
2022/09/08 07:07:43;;;;;;;21.57;9.83;;;;;;;18.70;72.03;100699.58;125973;1098;104150;-80
2022/09/08 07:13:57;;;;;;;24.93;9.97;;;;;;;19.06;72.20;100711.30;126385;1098;102218;-78
2022/09/08 07:17:09;;;;;;;22.77;10.00;;;;;;;19.21;71.43;100714.02;125689;1099;104156;-80
2022/09/08 07:20:05;;;;;;;23.47;10.50;;;;;;;19.37;72.01;100711.42;125710;1099;103372;-81
2022/09/08 07:23:32;;;;;;;24.13;9.93;;;;;;;19.54;71.17;100708.77;126581;1098;104047;-80
2022/09/08 07:26:29;;;;;;;22.43;10.47;;;;;;;19.72;70.76;100713.25;125807;1099;104172;-78
2022/09/08 07:29:35;;;;;;;;;;;;;;;;;;;;;
2022/09/08 07:32:28;;;;;;;24.13;10.30;;;;;;;20.05;70.92;100707.08;125828;1099;104345;-79
2022/09/08 07:35:10;;;;;;;28.00;11.93;;;;;;;20.25;69.41;100708.86;125829;1099;103538;-79
2022/09/08 07:38:02;;;;;;;;;;;;;;;20.38;69.41;100710.64;126426;1099;102318;-78
2022/09/08 07:40:59;;;;;;;19.67;9.70;;;;;;;20.52;69.64;100699.96;126415;1099;102129;-80
2022/09/08 07:43:35;;;;;;;20.97;9.30;;;;;;;20.65;69.98;100706.17;125863;1099;104310;-80
2022/09/08 07:49:54;;;;;;;22.87;9.20;;;;;;;20.97;67.90;100699.84;124984;1102;104225;-77
2022/09/08 07:52:29;;;;;;;;;;;;;;;21.09;68.06;100694.45;126109;1101;104372;-78
2022/09/08 07:55:22;;;;;;;23.47;10.23;;;;;;;21.13;68.26;100690.89;125054;1102;102202;-78
2022/09/08 07:58:29;;;;;;;;;;;;;;;;;;;;;
2022/09/08 08:08:59;;;;;;;20.77;9.23;;;;;;;21.60;67.95;100691.55;125043;1105;104165;-81
2022/09/08 08:12:00;;;;;;;23.73;9.10;;;;;;;21.71;66.95;100692.34;125251;1105;102159;-79
2022/09/08 08:15:26;;;;;;;18.00;8.37;;;;;;;21.88;67.39;100697.56;125246;1099;102543;-79
2022/09/08 08:18:25;;;;;;;21.80;8.13;;;;;;;22.03;67.22;100690.31;125030;1102;104178;-81
2022/09/08 08:21:13;;;;;;;18.77;7.70;;;;;;;22.16;66.14;100694.66;125133;1102;104307;-79
2022/09/08 08:24:21;;;;;;;19.20;7.17;;;;;;;22.26;66.00;100693.66;125123;1102;104166;-79
2022/09/08 08:27:06;;;;;;;16.23;8.33;;;;;;;22.44;65.22;100691.77;125028;1102;104211;-79
2022/09/08 08:30:07;;;;;;;15.23;7.87;;;;;;;22.52;65.48;100686.34;126163;1098;104169;-79
2022/09/08 08:33:21;;;;;;;16.97;7.57;;;;;;;22.51;64.99;100698.80;126049;1099;104365;-79
2022/09/08 08:43:42;;;;;;;15.93;7.27;;;;;;;22.62;63.34;100687.98;125091;1102;104217;-80
2022/09/08 08:47:21;;;;;;;14.25;7.08;;;;;;;22.81;63.75;100685.98;125266;1102;103245;-82
2022/09/08 08:50:39;;;;;;;13.70;7.00;;;;;;;22.90;63.35;100680.52;126062;1099;104810;-80
2022/09/08 08:57:20;;;;;;;18.67;6.80;;;;;;;23.18;62.72;100679.33;125064;1102;104120;-80
2022/09/08 09:00:43;;;;;;;17.43;7.43;;;;;;;23.28;61.81;100672.92;125648;1102;102196;-79
2022/09/08 09:04:00;;;;;;;12.60;6.93;;;;;;;23.33;61.57;100668.41;125737;1101;104752;-81
2022/09/08 09:07:15;;;;;;;;;;;;;;;;;;;;;
2022/09/08 09:10:24;;;;;;;12.43;6.43;;;;;;;23.46;61.13;100667.31;125687;1102;102215;-81
2022/09/08 09:13:26;;;;;;;;;;;;;;;23.62;60.12;100667.98;126187;1101;102583;-80
2022/09/08 09:16:19;;;;;;;11.67;6.47;;;;;;;23.75;60.16;100654.36;126048;1102;101800;-82
2022/09/08 09:19:43;;;;;;;11.00;6.17;;;;;;;23.86;59.85;100652.45;125191;1101;103598;-81
2022/09/08 09:23:00;;;;;;;14.17;6.47;;;;;;;23.94;59.21;100647.84;125040;1102;104387;-84
2022/09/08 09:26:04;;;;;;;9.53;4.53;;;;;;;24.00;59.08;100645.05;125103;1099;104185;-82
2022/09/08 09:29:11;;;;;;;7.43;4.30;;;;;;;24.12;58.37;100633.23;125094;1099;104182;-82
2022/09/08 09:32:27;;;;;;;10.43;4.63;;;;;;;24.19;57.87;100631.32;125207;1102;102059;-82
2022/09/08 09:35:47;;;;;;;10.93;4.73;;;;;;;24.30;57.28;100636.48;125079;1102;120316;-82
2022/09/08 09:38:56;;;;;;;11.55;5.60;;;;;;;24.38;56.90;100642.58;125491;1105;104391;-82
2022/09/08 09:45:28;;;;;;;;;;;;;;;;;;;;;
2022/09/08 09:48:29;;;;;;;9.40;4.43;;;;;;;24.26;55.88;100630.27;126161;1099;102123;-81
2022/09/08 09:51:20;;;;;;;;;;;;;;;24.43;55.39;100629.08;125289;1099;102320;-82
2022/09/08 09:54:29;;;;;;;9.37;4.83;;;;;;;24.49;54.92;100635.19;125251;1099;104197;-82
2022/09/08 09:57:55;;;;;;;;;;;;;;;;;;;;;
2022/09/08 10:00:49;;;;;;;10.57;5.13;;;;;;;24.54;54.30;100621.69;125737;1099;102200;-82
2022/09/08 10:04:17;;;;;;;9.93;4.77;;;;;;;24.61;54.46;100623.37;125201;1099;102267;-84
2022/09/08 10:07:58;;;;;;;;;;;;;;;;;;;;;
2022/09/08 10:11:02;;;;;;;9.13;4.83;;;;;;;24.72;53.88;100613.30;125440;1099;104246;-81
2022/09/08 10:14:21;;;;;;;9.93;4.63;;;;;;;24.78;53.57;100612.30;125737;1099;104188;-81
2022/09/08 10:17:32;;;;;;;9.63;4.50;;;;;;;24.83;52.75;100610.39;125873;1099;104216;-81
2022/09/08 10:20:36;;;;;;;9.43;4.80;;;;;;;24.96;52.63;100611.00;126611;1098;104145;-81
2022/09/08 10:23:37;;;;;;;9.10;4.97;;;;;;;25.07;52.48;100613.45;126543;1098;104303;-80
2022/09/08 10:26:38;;;;;;;8.57;4.60;;;;;;;25.21;52.13;100621.19;125508;1098;107817;-79
2022/09/08 10:29:41;;;;;;;9.37;5.17;;;;;;;25.29;51.92;100619.23;125738;1099;104082;-78
2022/09/08 10:35:48;;;;;;;10.27;4.63;;;;;;;25.44;51.30;100608.12;125039;1102;102678;-80
2022/09/08 10:38:44;;;;;;;7.80;4.30;;;;;;;25.45;50.74;100599.16;125591;1102;101796;-82
2022/09/08 10:45:27;;;;;;;9.87;4.33;;;;;;;25.42;50.38;100592.99;124886;1103;104210;-82
2022/09/08 10:49:27;;;;;;;;;;;;;;;;;;;;;
2022/09/08 10:52:29;;;;;;;10.43;4.43;;;;;;;25.65;50.21;100587.05;124762;1105;104172;-82
2022/09/08 10:55:55;;;;;;;;;;;;;;;;;;;;;
2022/09/08 10:59:42;;;;;;;;;;;;;;;;;;;;;
2022/09/08 11:02:48;;;;;;;6.53;4.70;;;;;;;25.81;49.37;100574.97;126052;1102;101980;-81
2022/09/08 11:05:58;;;;;;;8.53;4.37;;;;;;;25.89;48.76;100569.39;125569;1102;102056;-83
2022/09/08 11:09:14;;;;;;;15.30;5.60;;;;;;;25.93;47.68;100575.55;125765;1102;104162;-82
2022/09/08 11:12:15;;;;;;;8.23;4.10;;;;;;;26.08;47.98;100567.11;125514;1102;102237;-82
2022/09/08 11:15:31;;;;;;;6.37;4.10;;;;;;;26.21;47.43;100556.02;126277;1102;101768;-83
2022/09/08 11:18:37;;;;;;;9.67;4.43;;;;;;;26.41;47.77;100561.70;124842;1102;117791;-80
2022/09/08 11:21:33;;;;;;;;;;;;;;;;;;;;;
2022/09/08 11:24:35;;;;;;;;;;;;;;;;;;;;;
2022/09/08 11:27:36;;;;;;;8.07;4.20;;;;;;;26.58;46.04;100561.20;124889;1102;102308;-79
2022/09/08 11:30:22;;;;;;;10.93;4.40;;;;;;;26.46;46.21;100554.39;126083;1101;101914;-80
2022/09/08 11:33:16;;;;;;;8.90;4.20;;;;;;;26.36;46.76;100555.58;125039;1102;104213;-80
2022/09/08 11:36:10;;;;;;;6.43;3.87;;;;;;;26.39;46.29;100558.18;124960;1102;103294;-79
2022/09/08 11:39:05;;;;;;;7.20;4.37;;;;;;;26.39;45.88;100551.92;124758;1102;104214;-79
2022/09/08 11:42:08;;;;;;;8.35;4.05;;;;;;;26.36;45.86;100547.51;124948;1102;102419;-80
2022/09/08 11:44:55;;;;;;;6.03;4.30;;;;;;;26.49;45.13;100546.23;124937;1102;102545;-80
2022/09/08 11:48:09;;;;;;;7.83;3.90;;;;;;;26.50;45.48;100550.66;124797;1102;104379;-80
2022/09/08 11:51:19;;;;;;;9.67;4.20;;;;;;;26.68;45.09;100548.41;125103;1102;104226;-80
2022/09/08 11:54:18;;;;;;;9.37;4.47;;;;;;;26.75;44.60;100541.89;126167;1101;101772;-80
2022/09/08 11:57:35;;;;;;;11.13;3.97;;;;;;;26.65;43.79;100537.70;125827;1102;102185;-79
2022/09/08 12:00:22;;;;;;;7.00;3.87;;;;;;;26.73;44.36;100541.06;125166;1102;102072;-80
2022/09/08 12:03:19;;;;;;;9.53;4.60;;;;;;;26.70;42.80;100549.23;125175;1102;101895;-78
2022/09/08 12:06:25;;;;;;;9.70;4.80;;;;;;;26.50;43.01;100550.66;124997;1102;102330;-79
2022/09/08 12:09:18;;;;;;;8.40;4.33;;;;;;;26.36;43.53;100555.58;124978;1102;104265;-81
2022/09/08 12:12:38;;;;;;;8.80;3.73;;;;;;;26.29;43.52;100543.25;125020;1102;104079;-78
2022/09/08 12:15:54;;;;;;;5.17;3.37;;;;;;;26.26;43.07;100544.21;124856;1102;104233;-79
2022/09/08 12:18:45;;;;;;;5.33;3.37;;;;;;;26.37;43.42;100530.45;124910;1102;104163;-80
2022/09/08 12:22:20;;;;;;;12.93;4.10;;;;;;;26.48;42.71;100531.01;124838;1102;104233;-80
2022/09/08 12:25:43;;;;;;;7.30;3.63;;;;;;;26.63;42.33;100545.83;124812;1102;104406;-80
2022/09/08 12:28:38;;;;;;;8.93;3.70;;;;;;;26.75;42.42;100535.64;125650;1102;103750;-80
2022/09/08 12:31:23;;;;;;;5.63;3.70;;;;;;;26.81;42.30;100530.94;124934;1102;104163;-81
2022/09/08 12:34:27;;;;;;;7.10;3.50;;;;;;;26.88;42.10;100527.13;124969;1102;104294;-80
2022/09/08 12:37:23;;;;;;;3.93;3.30;;;;;;;26.96;41.88;100534.06;124954;1102;102410;-81
2022/09/08 12:40:31;;;;;;;5.60;3.37;;;;;;;27.05;41.46;100526.59;124857;1105;104159;-81
2022/09/08 12:43:34;;;;;;;6.80;3.83;;;;;;;27.07;40.68;100522.03;124792;1102;102474;-81
2022/09/08 12:46:52;;;;;;;5.07;3.63;;;;;;;27.19;41.25;100519.86;125711;1098;104198;-81
2022/09/08 12:50:08;;;;;;;5.60;3.40;;;;;;;27.24;40.51;100518.79;125177;1099;104612;-79
2022/09/08 12:53:16;;;;;;;7.43;4.37;;;;;;;27.18;40.83;100516.30;125613;1099;108197;-81
2022/09/08 12:56:04;;;;;;;6.00;3.47;;;;;;;27.24;40.92;100516.09;125796;1099;104159;-79
2022/09/08 12:58:45;;;;;;;4.17;3.50;;;;;;;27.26;40.65;100506.14;125702;1099;104319;-79
2022/09/08 13:01:26;;;;;;;10.47;4.00;;;;;;;27.21;40.25;100508.11;125731;1099;101765;-80
2022/09/08 13:04:26;;;;;;;7.53;3.77;;;;;;;27.17;40.66;100502.88;125686;1099;103043;-79
2022/09/08 13:07:15;;;;;;;15.53;4.23;;;;;;;27.08;40.41;100501.36;125586;1099;103251;-78
2022/09/08 13:10:04;;;;;;;7.90;3.90;;;;;;;26.98;40.17;100503.48;124408;1099;104215;-80
2022/09/08 13:13:27;;;;;;;8.73;3.60;;;;;;;26.87;40.26;100498.44;125697;1099;104163;-78
2022/09/08 13:16:24;;;;;;;6.50;3.70;;;;;;;26.61;39.54;100492.97;125771;1098;102343;-78
2022/09/08 13:19:00;;;;;;;;;;;;;;;26.44;39.56;100480.90;125759;1099;104168;-79
2022/09/08 13:21:51;;;;;;;9.17;4.00;;;;;;;26.31;39.75;100482.22;126029;1099;102707;-80
2022/09/08 13:24:35;;;;;;;9.00;4.07;;;;;;;26.23;40.09;100484.27;125711;1099;104153;-80
2022/09/08 13:27:37;;;;;;;10.93;4.83;;;;;;;26.12;40.05;100480.06;126520;1098;104188;-80
2022/09/08 13:30:21;;;;;;;9.73;3.80;;;;;;;26.00;40.18;100477.73;125726;1099;102230;-79
2022/09/08 13:33:22;;;;;;;12.87;4.13;;;;;;;25.93;40.06;100484.16;126520;1098;102117;-80
2022/09/08 13:36:08;;;;;;;10.30;4.07;;;;;;;25.88;39.98;100486.10;125656;1099;104374;-80
2022/09/08 13:39:08;;;;;;;9.20;3.93;;;;;;;25.89;40.43;100483.38;126322;1099;104160;-80